createdAt,value
2023-04-21T00:00:30.902Z,30.66
2023-04-21T00:01:30.908Z,30.70
2023-04-21T00:02:31.215Z,30.62
2023-04-21T00:03:31.106Z,30.62
2023-04-21T00:04:31.058Z,30.66
2023-04-21T00:05:31.188Z,30.67
2023-04-21T00:06:30.980Z,30.70
2023-04-21T00:07:30.979Z,30.66
2023-04-21T00:08:30.991Z,30.64
2023-04-21T00:09:31.014Z,30.66
2023-04-21T00:10:31.009Z,30.67
2023-04-21T00:11:31.046Z,30.63
2023-04-21T00:12:31.073Z,30.70
2023-04-21T00:13:31.057Z,30.62
2023-04-21T00:14:31.072Z,30.69
2023-04-21T00:15:31.104Z,30.64
2023-04-21T00:16:31.160Z,30.67
2023-04-21T00:17:31.161Z,30.66
2023-04-21T00:18:31.084Z,30.66
2023-04-21T00:19:31.128Z,30.67
2023-04-21T00:20:31.156Z,30.67
2023-04-21T00:21:31.151Z,30.63
2023-04-21T00:22:31.305Z,30.64
2023-04-21T00:23:31.177Z,30.60
2023-04-21T00:24:31.219Z,30.62
2023-04-21T00:25:31.222Z,30.66
2023-04-21T00:26:31.221Z,30.58
2023-04-21T00:27:31.224Z,30.62
2023-04-21T00:28:31.239Z,30.64
2023-04-21T00:29:31.284Z,30.62
2023-04-21T00:30:31.297Z,30.64
2023-04-21T00:31:31.319Z,30.63
2023-04-21T00:32:31.365Z,30.62
2023-04-21T00:33:31.315Z,30.62
2023-04-21T00:34:31.352Z,30.62
2023-04-21T00:35:31.362Z,30.62
2023-04-21T00:36:31.371Z,30.64
2023-04-21T00:37:31.406Z,30.60
2023-04-21T00:38:31.664Z,30.59
2023-04-21T00:39:31.427Z,30.59
2023-04-21T00:40:31.420Z,30.65
2023-04-21T00:41:31.442Z,30.62
2023-04-21T00:42:31.461Z,30.63
2023-04-21T00:43:31.503Z,30.62
2023-04-21T00:44:31.517Z,30.67
2023-04-21T00:45:31.560Z,30.59
2023-04-21T00:46:31.642Z,30.63
2023-04-21T00:47:31.648Z,30.62
2023-04-21T00:48:31.616Z,30.64
2023-04-21T00:49:31.636Z,30.62
2023-04-21T00:50:31.640Z,30.62
2023-04-21T00:51:31.712Z,30.62
2023-04-21T00:52:31.730Z,30.62
2023-04-21T00:53:31.715Z,30.65
2023-04-21T00:54:31.738Z,30.57
2023-04-21T00:55:31.731Z,30.62
2023-04-21T00:56:31.792Z,30.60
2023-04-21T00:57:31.852Z,30.62
2023-04-21T00:58:31.836Z,30.60
2023-04-21T00:59:31.828Z,30.63
2023-04-21T01:00:31.919Z,30.60
2023-04-21T01:01:31.876Z,30.57
2023-04-21T01:02:32.026Z,30.59
2023-04-21T01:03:32.094Z,30.60
2023-04-21T01:04:31.940Z,30.57
2023-04-21T01:05:31.975Z,30.57
2023-04-21T01:06:32.052Z,30.58
2023-04-21T01:07:31.995Z,30.63
2023-04-21T01:08:32.076Z,30.60
2023-04-21T01:09:32.044Z,30.61
2023-04-21T01:10:32.073Z,30.63
2023-04-21T01:11:32.076Z,30.60
2023-04-21T01:12:32.157Z,30.56
2023-04-21T01:13:32.174Z,30.60
2023-04-21T01:14:32.197Z,30.56
2023-04-21T01:15:32.174Z,30.62
2023-04-21T01:16:32.222Z,30.58
2023-04-21T01:17:32.286Z,30.62
2023-04-21T01:18:32.247Z,30.57
2023-04-21T01:19:32.315Z,30.58
2023-04-21T01:20:32.347Z,30.58
2023-04-21T01:21:32.340Z,30.60
2023-04-21T01:22:32.387Z,30.67
2023-04-21T01:23:32.351Z,30.58
2023-04-21T01:24:32.379Z,30.56
2023-04-21T01:25:32.420Z,30.58
2023-04-21T01:26:32.449Z,30.57
2023-04-21T01:27:32.453Z,30.60
2023-04-21T01:28:32.450Z,30.57
2023-04-21T01:29:32.484Z,30.57
2023-04-21T01:30:32.508Z,30.56
2023-04-21T01:31:32.547Z,30.60
2023-04-21T01:32:32.704Z,30.53
2023-04-21T01:33:32.573Z,30.58
2023-04-21T01:34:32.621Z,30.53
2023-04-21T01:35:32.631Z,30.57
2023-04-21T01:36:32.646Z,30.60
2023-04-21T01:37:32.646Z,30.61
2023-04-21T01:38:32.708Z,30.59
2023-04-21T01:39:32.685Z,30.57
2023-04-21T01:40:32.762Z,30.54
2023-04-21T01:41:32.773Z,30.54
2023-04-21T01:42:32.783Z,30.62
2023-04-21T01:43:32.783Z,30.59
2023-04-21T01:44:32.803Z,30.53
2023-04-21T01:45:32.836Z,30.56
2023-04-21T01:46:32.870Z,30.56
2023-04-21T01:47:32.921Z,30.56
2023-04-21T01:48:32.920Z,30.56
2023-04-21T01:49:32.936Z,30.53
2023-04-21T01:50:32.952Z,30.53
2023-04-21T01:51:32.987Z,30.57
2023-04-21T01:52:33.006Z,30.55
2023-04-21T01:53:33.025Z,30.54
2023-04-21T01:54:33.072Z,30.53
2023-04-21T01:55:33.080Z,30.56
2023-04-21T01:56:33.115Z,30.56
2023-04-21T01:57:33.128Z,30.54
2023-04-21T01:58:33.143Z,30.62
2023-04-21T01:59:33.157Z,30.54
2023-04-21T02:00:33.182Z,30.58
2023-04-21T02:01:33.226Z,30.53
2023-04-21T02:02:33.315Z,30.54
2023-04-21T02:03:33.418Z,30.54
2023-04-21T02:04:33.396Z,30.50
2023-04-21T02:05:33.314Z,30.53
2023-04-21T02:06:33.370Z,30.58
2023-04-21T02:07:33.385Z,30.56
2023-04-21T02:08:33.408Z,30.57
2023-04-21T02:09:33.411Z,30.54
2023-04-21T02:10:33.436Z,30.56
2023-04-21T02:11:33.490Z,30.53
2023-04-21T02:12:33.507Z,30.51
2023-04-21T02:13:33.513Z,30.54
2023-04-21T02:14:33.572Z,30.53
2023-04-21T02:15:33.660Z,30.51
2023-04-21T02:16:33.648Z,30.57
2023-04-21T02:17:33.699Z,30.51
2023-04-21T02:18:33.693Z,30.51
2023-04-21T02:19:33.701Z,30.52
2023-04-21T02:20:33.750Z,30.54
2023-04-21T02:21:33.770Z,30.50
2023-04-21T02:22:33.787Z,30.57
2023-04-21T02:23:33.812Z,30.54
2023-04-21T02:24:33.813Z,30.50
2023-04-21T02:25:33.862Z,30.53
2023-04-21T02:26:33.912Z,30.50
2023-04-21T02:27:33.942Z,30.50
2023-04-21T02:28:33.950Z,30.51
2023-04-21T02:29:33.961Z,30.50
2023-04-21T02:30:34.004Z,30.50
2023-04-21T02:31:40.434Z,30.51
2023-04-21T02:32:35.194Z,30.51
2023-04-21T02:33:34.006Z,30.49
2023-04-21T02:34:34.020Z,30.53
2023-04-21T02:35:33.992Z,30.54
2023-04-21T02:36:34.014Z,30.50
2023-04-21T02:37:33.976Z,30.53
2023-04-21T02:38:33.972Z,30.53
2023-04-21T02:39:34.001Z,30.51
2023-04-21T02:40:33.992Z,30.48
2023-04-21T02:41:33.975Z,30.50
2023-04-21T02:42:33.942Z,30.53
2023-04-21T02:43:33.972Z,30.51
2023-04-21T02:44:33.933Z,30.50
2023-04-21T02:45:33.933Z,30.53
2023-04-21T02:46:33.995Z,30.50
2023-04-21T02:47:33.936Z,30.53
2023-04-21T02:48:33.915Z,30.50
2023-04-21T02:49:33.909Z,30.54
2023-04-21T02:50:33.947Z,30.50
2023-04-21T02:51:33.945Z,30.54
2023-04-21T02:52:33.983Z,30.55
2023-04-21T02:53:34.004Z,30.54
2023-04-21T02:54:33.991Z,30.50
2023-04-21T02:55:34.073Z,30.48
2023-04-21T02:56:34.099Z,30.47
2023-04-21T02:57:34.077Z,30.54
2023-04-21T02:58:34.122Z,30.52
2023-04-21T02:59:34.180Z,30.51
2023-04-21T03:00:34.226Z,30.48
2023-04-21T03:01:34.212Z,30.47
2023-04-21T03:02:34.373Z,30.51
2023-04-21T03:03:34.314Z,30.47
2023-04-21T03:04:34.550Z,30.48
2023-04-21T03:05:34.328Z,30.46
2023-04-21T03:06:34.372Z,30.47
2023-04-21T03:07:34.397Z,30.51
2023-04-21T03:08:34.436Z,30.52
2023-04-21T03:09:34.446Z,30.50
2023-04-21T03:10:34.485Z,30.54
2023-04-21T03:11:34.524Z,30.50
2023-04-21T03:12:34.527Z,30.52
2023-04-21T03:13:34.548Z,30.51
2023-04-21T03:14:34.584Z,30.47
2023-04-21T03:15:34.621Z,30.51
2023-04-21T03:16:34.664Z,30.44
2023-04-21T03:17:34.691Z,30.47
2023-04-21T03:18:34.714Z,30.48
2023-04-21T03:19:34.723Z,30.52
2023-04-21T03:20:34.762Z,30.51
2023-04-21T03:21:34.795Z,30.48
2023-04-21T03:22:34.819Z,30.47
2023-04-21T03:23:34.889Z,30.47
2023-04-21T03:24:34.884Z,30.48
2023-04-21T03:25:35.649Z,30.49
2023-04-21T03:26:34.953Z,30.48
2023-04-21T03:27:34.991Z,30.47
2023-04-21T03:28:34.997Z,30.46
2023-04-21T03:29:35.028Z,30.52
2023-04-21T03:30:35.080Z,30.46
2023-04-21T03:31:35.136Z,30.49
2023-04-21T03:32:35.191Z,30.48
2023-04-21T03:33:35.166Z,30.44
2023-04-21T03:34:35.205Z,30.49
2023-04-21T03:35:35.235Z,30.49
2023-04-21T03:36:35.298Z,30.48
2023-04-21T03:37:35.308Z,30.45
2023-04-21T03:38:35.331Z,30.51
2023-04-21T03:39:35.391Z,30.48
2023-04-21T03:40:35.455Z,30.51
2023-04-21T03:41:35.463Z,30.48
2023-04-21T03:42:35.495Z,30.47
2023-04-21T03:43:35.500Z,30.48
2023-04-21T03:44:35.525Z,30.47
2023-04-21T03:45:35.635Z,30.44
2023-04-21T03:46:35.591Z,30.45
2023-04-21T03:47:35.696Z,30.48
2023-04-21T03:48:35.638Z,30.43
2023-04-21T03:49:35.679Z,30.48
2023-04-21T03:50:35.704Z,30.48
2023-04-21T03:51:35.799Z,30.49
2023-04-21T03:52:35.830Z,30.42
2023-04-21T03:53:35.787Z,30.46
2023-04-21T03:54:35.834Z,30.47
2023-04-21T03:55:35.855Z,30.44
2023-04-21T03:56:35.866Z,30.48
2023-04-21T03:57:35.919Z,30.44
2023-04-21T03:58:35.929Z,30.44
2023-04-21T03:59:35.958Z,30.44
2023-04-21T04:00:36.025Z,30.48
2023-04-21T04:01:36.041Z,30.46
2023-04-21T04:02:36.206Z,30.46
2023-04-21T04:03:36.234Z,30.44
2023-04-21T04:04:36.224Z,30.47
2023-04-21T04:05:36.193Z,30.47
2023-04-21T04:06:36.221Z,30.45
2023-04-21T04:07:36.237Z,30.40
2023-04-21T04:08:36.262Z,30.45
2023-04-21T04:09:36.303Z,30.48
2023-04-21T04:10:36.340Z,30.45
2023-04-21T04:11:36.366Z,30.49
2023-04-21T04:12:36.403Z,30.41
2023-04-21T04:13:36.412Z,30.42
2023-04-21T04:14:36.484Z,30.44
2023-04-21T04:15:36.523Z,30.42
2023-04-21T04:16:36.512Z,30.42
2023-04-21T04:17:36.640Z,30.42
2023-04-21T04:18:36.615Z,30.44
2023-04-21T04:19:36.661Z,30.44
2023-04-21T04:20:36.678Z,30.43
2023-04-21T04:21:36.713Z,30.44
2023-04-21T04:22:36.770Z,30.45
2023-04-21T04:23:36.767Z,30.42
2023-04-21T04:24:36.813Z,30.45
2023-04-21T04:25:36.860Z,30.44
2023-04-21T04:26:36.904Z,30.45
2023-04-21T04:27:36.926Z,30.45
2023-04-21T04:28:36.939Z,30.49
2023-04-21T04:29:36.990Z,30.42
2023-04-21T04:30:37.046Z,30.41
2023-04-21T04:31:37.076Z,30.44
2023-04-21T04:32:37.103Z,30.42
2023-04-21T04:33:37.156Z,30.45
2023-04-21T04:34:37.122Z,30.42
2023-04-21T04:35:37.173Z,30.44
2023-04-21T04:36:37.231Z,30.44
2023-04-21T04:37:37.239Z,30.42
2023-04-21T04:38:37.262Z,30.40
2023-04-21T04:39:37.311Z,30.42
2023-04-21T04:40:37.351Z,30.45
2023-04-21T04:41:37.381Z,30.44
2023-04-21T04:42:37.418Z,30.40
2023-04-21T04:43:37.432Z,30.44
2023-04-21T04:44:37.454Z,30.42
2023-04-21T04:45:37.491Z,30.41
2023-04-21T04:46:37.610Z,30.40
2023-04-21T04:47:37.577Z,30.41
2023-04-21T04:48:37.634Z,30.44
2023-04-21T04:49:37.648Z,30.43
2023-04-21T04:50:37.674Z,30.38
2023-04-21T04:51:37.731Z,30.41
2023-04-21T04:52:37.727Z,30.42
2023-04-21T04:53:37.754Z,30.42
2023-04-21T04:54:37.822Z,30.42
2023-04-21T04:55:37.846Z,30.40
2023-04-21T04:56:37.928Z,30.42
2023-04-21T04:57:37.930Z,30.34
2023-04-21T04:58:37.951Z,30.40
2023-04-21T04:59:37.996Z,30.40
2023-04-21T05:00:38.060Z,30.40
2023-04-21T05:01:38.144Z,30.41
2023-04-21T05:02:38.197Z,30.43
2023-04-21T05:03:38.231Z,30.42
2023-04-21T05:04:38.282Z,30.41
2023-04-21T05:05:38.162Z,30.38
2023-04-21T05:06:38.218Z,30.45
2023-04-21T05:07:38.273Z,30.44
2023-04-21T05:08:38.252Z,30.45
2023-04-21T05:09:38.320Z,30.47
2023-04-21T05:10:38.375Z,30.43
2023-04-21T05:11:38.402Z,30.44
2023-04-21T05:12:38.404Z,30.44
2023-04-21T05:13:40.187Z,30.38
2023-04-21T05:14:38.489Z,30.38
2023-04-21T05:15:38.524Z,30.35
2023-04-21T05:16:38.591Z,30.36
2023-04-21T05:17:38.578Z,30.36
2023-04-21T05:18:38.605Z,30.32
2023-04-21T05:19:38.572Z,30.35
2023-04-21T05:20:38.571Z,30.33
2023-04-21T05:21:38.579Z,30.33
2023-04-21T05:22:38.593Z,30.33
2023-04-21T05:23:38.601Z,30.33
2023-04-21T05:24:38.585Z,30.32
2023-04-21T05:25:38.657Z,30.31
2023-04-21T05:26:38.645Z,30.31
2023-04-21T05:27:38.582Z,30.33
2023-04-21T05:28:38.595Z,30.31
2023-04-21T05:29:38.606Z,30.26
2023-04-21T05:30:38.604Z,30.28
2023-04-21T05:31:38.652Z,30.27
2023-04-21T05:32:38.733Z,30.27
2023-04-21T05:33:38.622Z,30.28
2023-04-21T05:34:38.626Z,30.24
2023-04-21T05:35:38.650Z,30.26
2023-04-21T05:36:38.650Z,30.22
2023-04-21T05:37:38.732Z,30.24
2023-04-21T05:38:38.735Z,30.18
2023-04-21T05:39:38.785Z,30.25
2023-04-21T05:40:38.857Z,30.21
2023-04-21T05:41:38.946Z,30.23
2023-04-21T05:42:39.019Z,30.18
2023-04-21T05:43:39.035Z,30.18
2023-04-21T05:44:39.114Z,30.15
2023-04-21T05:45:39.207Z,30.14
2023-04-21T05:46:39.360Z,30.17
2023-04-21T05:47:39.415Z,31.90
2023-04-21T05:48:39.367Z,30.98
2023-04-21T05:49:39.439Z,30.59
2023-04-21T05:50:39.490Z,30.54
2023-04-21T05:51:39.578Z,30.62
2023-04-21T05:52:39.632Z,31.40
2023-04-21T05:53:39.687Z,31.56
2023-04-21T05:54:39.765Z,31.00
2023-04-21T05:55:39.760Z,30.87
2023-04-21T05:56:39.841Z,32.46
2023-04-21T05:57:39.891Z,31.33
2023-04-21T05:58:39.919Z,31.52
2023-04-21T05:59:39.976Z,31.20
2023-04-21T06:00:40.032Z,31.40
2023-04-21T06:01:40.036Z,31.32
2023-04-21T06:02:40.239Z,31.48
2023-04-21T06:03:40.174Z,31.75
2023-04-21T06:04:40.272Z,31.94
2023-04-21T06:05:40.111Z,32.00
2023-04-21T06:06:40.102Z,32.00
2023-04-21T06:07:40.135Z,32.14
2023-04-21T06:08:40.094Z,32.24
2023-04-21T06:09:40.121Z,32.48
2023-04-21T06:10:40.114Z,32.59
2023-04-21T06:11:40.189Z,32.56
2023-04-21T06:12:40.229Z,32.82
2023-04-21T06:13:42.268Z,34.29
2023-04-21T06:14:40.274Z,33.11
2023-04-21T06:15:40.265Z,33.45
2023-04-21T06:16:40.306Z,33.92
2023-04-21T06:17:40.299Z,33.71
2023-04-21T06:18:40.240Z,33.57
2023-04-21T06:19:41.876Z,33.65
2023-04-21T06:20:40.198Z,33.85
2023-04-21T06:21:40.744Z,34.02
2023-04-21T06:22:40.223Z,34.15
2023-04-21T06:23:40.197Z,34.54
2023-04-21T06:24:40.207Z,34.85
2023-04-21T06:25:40.236Z,34.59
2023-04-21T06:26:40.187Z,34.65
2023-04-21T06:27:40.213Z,35.20
2023-04-21T06:28:40.164Z,35.24
2023-04-21T06:29:40.194Z,35.24
2023-04-21T06:30:40.162Z,35.34
2023-04-21T06:31:40.189Z,35.22
2023-04-21T06:32:40.182Z,35.55
2023-04-21T06:33:40.138Z,35.42
2023-04-21T06:34:40.148Z,35.56
2023-04-21T06:35:40.131Z,35.95
2023-04-21T06:36:40.126Z,35.65
2023-04-21T06:37:40.091Z,36.22
2023-04-21T06:38:40.125Z,36.18
2023-04-21T06:39:40.096Z,36.09
2023-04-21T06:40:40.083Z,36.27
2023-04-21T06:41:40.092Z,36.23
2023-04-21T06:42:40.086Z,36.48
2023-04-21T06:43:40.061Z,36.60
2023-04-21T06:44:40.045Z,36.45
2023-04-21T06:45:40.057Z,36.45
2023-04-21T06:46:40.097Z,36.92
2023-04-21T06:47:40.082Z,36.58
2023-04-21T06:48:40.040Z,36.62
2023-04-21T06:49:40.045Z,36.72
2023-04-21T06:50:40.118Z,37.98
2023-04-21T06:51:40.163Z,36.94
2023-04-21T06:52:40.238Z,38.40
2023-04-21T06:53:40.275Z,36.80
2023-04-21T06:54:40.342Z,36.36
2023-04-21T06:55:40.363Z,36.28
2023-04-21T06:56:40.398Z,36.53
2023-04-21T06:57:40.407Z,36.84
2023-04-21T06:58:40.420Z,36.74
2023-04-21T06:59:40.422Z,36.60
2023-04-21T07:00:40.500Z,36.35
2023-04-21T07:01:40.504Z,36.26
2023-04-21T07:02:40.599Z,35.92
2023-04-21T07:03:40.485Z,35.84
2023-04-21T07:04:40.538Z,35.60
2023-04-21T07:05:40.489Z,35.61
2023-04-21T07:06:40.513Z,35.61
2023-04-21T07:07:40.539Z,35.51
2023-04-21T07:08:40.556Z,35.36
2023-04-21T07:09:40.568Z,35.25
2023-04-21T07:10:40.608Z,35.02
2023-04-21T07:11:40.613Z,34.81
2023-04-21T07:12:40.613Z,34.67
2023-04-21T07:13:40.651Z,34.43
2023-04-21T07:14:40.648Z,34.36
2023-04-21T07:15:40.695Z,34.21
2023-04-21T07:16:40.781Z,34.11
2023-04-21T07:17:40.822Z,34.10
2023-04-21T07:18:40.813Z,34.03
2023-04-21T07:19:40.859Z,33.91
2023-04-21T07:20:40.880Z,33.86
2023-04-21T07:21:40.993Z,33.82
2023-04-21T07:22:40.972Z,33.75
2023-04-21T07:23:41.033Z,33.69
2023-04-21T07:24:41.075Z,33.64
2023-04-21T07:25:41.118Z,33.55
2023-04-21T07:26:41.236Z,33.45
2023-04-21T07:27:41.269Z,33.37
2023-04-21T07:28:41.300Z,33.41
2023-04-21T07:29:41.353Z,33.26
2023-04-21T07:30:41.425Z,33.26
2023-04-21T07:31:41.512Z,33.13
2023-04-21T07:32:41.551Z,33.04
2023-04-21T07:33:41.552Z,33.07
2023-04-21T07:34:41.630Z,32.92
2023-04-21T07:35:41.699Z,32.92
2023-04-21T07:36:41.799Z,32.85
2023-04-21T07:37:41.868Z,32.81
2023-04-21T07:38:41.895Z,32.76
2023-04-21T07:39:41.958Z,32.68
2023-04-21T07:40:42.003Z,32.66
2023-04-21T07:41:42.111Z,32.57
2023-04-21T07:42:42.159Z,32.59
2023-04-21T07:43:42.211Z,32.51
2023-04-21T07:44:42.242Z,32.50
2023-04-21T07:45:42.248Z,32.41
2023-04-21T07:46:42.353Z,32.31
2023-04-21T07:47:42.378Z,31.95
2023-04-21T07:48:42.405Z,32.36
2023-04-21T07:49:42.383Z,32.80
2023-04-21T07:50:42.434Z,33.11
2023-04-21T07:51:42.470Z,33.27
2023-04-21T07:52:42.529Z,33.39
2023-04-21T07:53:42.637Z,33.42
2023-04-21T07:54:42.675Z,33.46
2023-04-21T07:55:42.726Z,33.37
2023-04-21T07:56:42.767Z,33.44
2023-04-21T07:57:42.848Z,33.33
2023-04-21T07:58:42.890Z,33.20
2023-04-21T07:59:42.932Z,33.06
2023-04-21T08:00:43.002Z,32.98
2023-04-21T08:01:43.039Z,32.90
2023-04-21T08:02:43.147Z,32.75
2023-04-21T08:03:43.217Z,32.75
2023-04-21T08:04:43.329Z,32.76
2023-04-21T08:05:43.372Z,32.63
2023-04-21T08:06:43.422Z,32.56
2023-04-21T08:07:43.403Z,32.57
2023-04-21T08:08:43.478Z,32.49
2023-04-21T08:09:43.568Z,32.55
2023-04-21T08:10:43.587Z,32.46
2023-04-21T08:11:43.697Z,32.55
2023-04-21T08:12:43.710Z,32.53
2023-04-21T08:13:43.772Z,32.47
2023-04-21T08:14:43.824Z,32.51
2023-04-21T08:15:44.066Z,32.48
2023-04-21T08:16:44.018Z,32.54
2023-04-21T08:17:44.041Z,32.54
2023-04-21T08:18:44.117Z,32.53
2023-04-21T08:19:44.184Z,32.54
2023-04-21T08:20:44.237Z,32.53
2023-04-21T08:21:44.350Z,32.57
2023-04-21T08:22:46.004Z,32.60
2023-04-21T08:23:44.373Z,32.62
2023-04-21T08:24:44.395Z,32.62
2023-04-21T08:25:44.340Z,32.64
2023-04-21T08:26:44.353Z,32.58
2023-04-21T08:27:44.313Z,32.61
2023-04-21T08:28:44.283Z,32.55
2023-04-21T08:29:44.342Z,32.50
2023-04-21T08:30:44.290Z,32.44
2023-04-21T08:31:44.322Z,32.53
2023-04-21T08:32:44.290Z,32.45
2023-04-21T08:33:58.012Z,32.42
2023-04-21T08:34:45.252Z,32.46
2023-04-21T08:35:59.300Z,32.42
2023-04-21T08:36:45.251Z,32.43
2023-04-21T08:37:44.252Z,32.45
2023-04-21T08:38:44.334Z,32.49
2023-04-21T08:39:44.236Z,32.41
2023-04-21T08:40:44.211Z,32.42
2023-04-21T08:41:44.216Z,32.40
2023-04-21T08:42:44.191Z,32.42
2023-04-21T08:43:44.250Z,32.59
2023-04-21T08:44:44.288Z,32.65
2023-04-21T08:45:44.417Z,32.75
2023-04-21T08:46:44.384Z,32.73
2023-04-21T08:47:44.503Z,32.89
2023-04-21T08:48:44.546Z,32.81
2023-04-21T08:49:44.503Z,32.86
2023-04-21T08:50:44.562Z,32.96
2023-04-21T08:51:44.562Z,33.02
2023-04-21T08:52:44.595Z,33.25
2023-04-21T08:53:44.626Z,33.11
2023-04-21T08:54:44.635Z,33.17
2023-04-21T08:55:44.647Z,33.79
2023-04-21T08:56:44.691Z,33.51
2023-04-21T08:57:44.760Z,33.57
2023-04-21T08:58:44.716Z,33.36
2023-04-21T08:59:44.752Z,33.59
2023-04-21T09:00:44.769Z,33.55
2023-04-21T09:01:44.829Z,33.51
2023-04-21T09:02:44.921Z,33.57
2023-04-21T09:03:45.026Z,33.56
2023-04-21T09:04:45.026Z,33.52
2023-04-21T09:05:45.059Z,33.42
2023-04-21T09:06:45.039Z,33.34
2023-04-21T09:07:44.917Z,33.30
2023-04-21T09:08:44.948Z,33.15
2023-04-21T09:09:45.036Z,33.07
2023-04-21T09:10:44.985Z,33.00
2023-04-21T09:11:45.041Z,33.06
2023-04-21T09:12:45.042Z,32.92
2023-04-21T09:13:45.096Z,32.13
2023-04-21T09:14:45.104Z,32.71
2023-04-21T09:15:45.145Z,32.87
2023-04-21T09:16:45.137Z,33.41
2023-04-21T09:17:45.201Z,33.53
2023-04-21T09:18:45.202Z,33.98
2023-04-21T09:19:45.235Z,33.48
2023-04-21T09:20:45.314Z,33.93
2023-04-21T09:21:45.352Z,33.90
2023-04-21T09:22:45.379Z,34.07
2023-04-21T09:23:45.322Z,33.91
2023-04-21T09:24:45.408Z,34.00
2023-04-21T09:25:45.397Z,34.03
2023-04-21T09:26:45.410Z,34.07
2023-04-21T09:27:45.788Z,33.81
2023-04-21T09:28:45.475Z,33.68
2023-04-21T09:29:45.500Z,33.52
2023-04-21T09:30:45.593Z,33.44
2023-04-21T09:31:45.625Z,33.26
2023-04-21T09:32:45.628Z,33.16
2023-04-21T09:33:56.595Z,33.10
2023-04-21T09:34:46.586Z,32.96
2023-04-21T09:35:45.573Z,32.95
2023-04-21T09:36:45.557Z,32.86
2023-04-21T09:37:45.566Z,32.80
2023-04-21T09:38:45.705Z,32.73
2023-04-21T09:39:56.733Z,32.70
2023-04-21T09:40:46.556Z,32.66
2023-04-21T09:41:45.538Z,32.60
2023-04-21T09:42:45.497Z,32.53
2023-04-21T09:43:45.531Z,32.53
2023-04-21T09:44:52.493Z,32.47
2023-04-21T09:45:46.510Z,32.43
2023-04-21T09:46:45.574Z,32.39
2023-04-21T09:47:45.606Z,29.25
2023-04-21T09:48:45.455Z,30.17
2023-04-21T09:49:45.470Z,30.93
2023-04-21T09:52:45.475Z,31.75
2023-04-21T09:53:46.578Z,31.86
2023-04-21T09:54:45.442Z,31.89
2023-04-21T09:55:45.440Z,31.94
2023-04-21T09:56:45.419Z,32.04
2023-04-21T09:57:45.432Z,31.97
2023-04-21T09:58:45.406Z,32.07
2023-04-21T09:59:45.425Z,32.04
2023-04-21T10:00:45.407Z,32.04
2023-04-21T10:01:45.471Z,31.95
2023-04-21T10:02:45.623Z,32.06
2023-04-21T10:03:45.694Z,32.04
2023-04-21T10:04:46.080Z,32.13
2023-04-21T10:05:45.726Z,32.15
2023-04-21T10:06:45.760Z,32.12
2023-04-21T10:07:45.761Z,32.23
2023-04-21T10:08:45.824Z,32.38
2023-04-21T10:09:45.873Z,30.22
2023-04-21T10:10:45.999Z,30.57
2023-04-21T10:11:45.948Z,30.76
2023-04-21T10:12:46.038Z,30.87
2023-04-21T10:13:46.090Z,29.43
2023-04-21T10:14:46.160Z,29.80
2023-04-21T10:15:46.264Z,30.21
2023-04-21T10:16:46.302Z,29.76
2023-04-21T10:17:46.278Z,28.16
2023-04-21T10:18:46.254Z,28.24
2023-04-21T10:19:46.227Z,27.65
2023-04-21T10:20:46.237Z,27.78
2023-04-21T10:21:46.254Z,27.54
2023-04-21T10:22:46.245Z,27.44
2023-04-21T10:23:46.258Z,28.00
2023-04-21T10:24:46.229Z,27.70
2023-04-21T10:25:46.227Z,27.55
2023-04-21T10:26:46.257Z,27.94
2023-04-21T10:27:46.245Z,26.56
2023-04-21T10:28:46.269Z,27.38
2023-04-21T10:29:56.145Z,27.12
2023-04-21T10:30:47.255Z,26.75
2023-04-21T10:31:46.320Z,26.59
2023-04-21T10:32:46.231Z,26.46
2023-04-21T10:33:46.232Z,26.13
2023-04-21T10:34:46.205Z,26.17
2023-04-21T10:35:46.200Z,26.25
2023-04-21T10:36:46.208Z,26.88
2023-04-21T10:37:46.224Z,26.40
2023-04-21T10:38:46.200Z,26.04
2023-04-21T10:39:46.164Z,25.61
2023-04-21T10:40:46.197Z,25.34
2023-04-21T10:41:46.145Z,25.43
2023-04-21T10:42:46.194Z,26.19
2023-04-21T10:43:49.333Z,26.41
2023-04-21T10:44:46.129Z,27.30
2023-04-21T10:45:46.138Z,27.08
2023-04-21T10:46:46.170Z,27.28
2023-04-21T10:47:46.409Z,27.31
2023-04-21T10:48:46.112Z,27.44
2023-04-21T10:49:46.105Z,27.54
2023-04-21T10:50:46.102Z,27.62
2023-04-21T10:51:46.098Z,27.59
2023-04-21T10:52:46.192Z,27.57
2023-04-21T10:53:46.084Z,27.68
2023-04-21T10:54:46.386Z,27.76
2023-04-21T10:55:46.079Z,27.71
2023-04-21T10:56:46.063Z,27.72
2023-04-21T10:57:46.109Z,27.77
2023-04-21T10:58:46.073Z,27.74
2023-04-21T10:59:46.049Z,27.80
2023-04-21T11:00:46.058Z,27.82
2023-04-21T11:01:46.079Z,27.86
2023-04-21T11:02:46.167Z,27.85
2023-04-21T11:03:46.211Z,27.83
2023-04-21T11:04:46.488Z,27.83
2023-04-21T11:05:46.008Z,27.86
2023-04-21T11:06:46.027Z,27.89
2023-04-21T11:07:45.977Z,27.89
2023-04-21T11:08:46.002Z,27.93
2023-04-21T11:09:45.963Z,27.80
2023-04-21T11:10:45.945Z,27.86
2023-04-21T11:11:45.942Z,27.91
2023-04-21T11:12:45.992Z,27.94
2023-04-21T11:13:45.965Z,27.97
2023-04-21T11:14:45.947Z,27.96
2023-04-21T11:15:45.948Z,27.92
2023-04-21T11:16:46.077Z,27.93
2023-04-21T11:17:45.930Z,27.92
2023-04-21T11:18:46.205Z,27.95
2023-04-21T11:19:45.906Z,28.00
2023-04-21T11:20:45.948Z,27.95
2023-04-21T11:21:45.881Z,28.02
2023-04-21T11:22:45.898Z,27.93
2023-04-21T11:23:45.889Z,27.99
2023-04-21T11:24:45.876Z,28.00
2023-04-21T11:25:45.869Z,27.96
2023-04-21T11:26:45.883Z,27.98
2023-04-21T11:27:46.840Z,27.97
2023-04-21T11:28:45.832Z,28.02
2023-04-21T11:29:45.831Z,28.03
2023-04-21T11:30:45.822Z,28.02
2023-04-21T11:31:45.906Z,28.00
2023-04-21T11:32:46.031Z,28.06
2023-04-21T11:33:46.030Z,27.98
2023-04-21T11:34:46.118Z,27.99
2023-04-21T11:35:46.144Z,27.99
2023-04-21T11:36:46.221Z,28.06
2023-04-21T11:37:46.266Z,28.04
2023-04-21T11:38:46.413Z,28.02
2023-04-21T11:39:46.438Z,28.04
2023-04-21T11:40:46.465Z,28.06
2023-04-21T11:41:46.530Z,28.08
2023-04-21T11:42:46.614Z,28.02
2023-04-21T11:43:46.654Z,28.10
2023-04-21T11:44:46.736Z,28.08
2023-04-21T11:45:46.802Z,28.07
2023-04-21T11:46:46.925Z,28.07
2023-04-21T11:47:46.911Z,28.10
2023-04-21T11:48:46.985Z,28.07
2023-04-21T11:49:47.019Z,28.11
2023-04-21T11:50:47.120Z,28.05
2023-04-21T11:51:47.198Z,28.03
2023-04-21T11:52:47.240Z,28.10
2023-04-21T11:53:47.301Z,28.10
2023-04-21T11:54:47.334Z,28.04
2023-04-21T11:55:47.438Z,28.10
2023-04-21T11:56:47.536Z,28.04
2023-04-21T11:57:47.584Z,28.10
2023-04-21T11:58:47.619Z,28.08
2023-04-21T11:59:47.700Z,28.07
2023-04-21T12:00:47.738Z,28.11
2023-04-21T12:01:47.813Z,28.02
2023-04-21T12:02:47.982Z,28.12
2023-04-21T12:03:48.204Z,28.07
2023-04-21T12:04:48.178Z,28.06
2023-04-21T12:05:48.094Z,28.10
2023-04-21T12:06:48.126Z,28.03
2023-04-21T12:07:48.155Z,28.00
2023-04-21T12:08:48.239Z,28.06
2023-04-21T12:09:48.291Z,28.02
2023-04-21T12:10:48.397Z,28.00
2023-04-21T12:11:49.587Z,28.00
2023-04-21T12:12:48.480Z,28.08
2023-04-21T12:13:48.536Z,27.99
2023-04-21T12:14:48.624Z,28.08
2023-04-21T12:15:48.717Z,27.99
2023-04-21T12:16:48.821Z,28.02
2023-04-21T12:17:48.949Z,27.97
2023-04-21T12:18:48.828Z,28.00
2023-04-21T12:19:48.922Z,28.01
2023-04-21T12:20:48.945Z,28.01
2023-04-21T12:21:48.998Z,28.04
2023-04-21T12:22:49.188Z,28.02
2023-04-21T12:23:49.103Z,27.96
2023-04-21T12:24:49.163Z,28.02
2023-04-21T12:25:49.214Z,28.01
2023-04-21T12:26:49.264Z,28.02
2023-04-21T12:27:49.353Z,27.98
2023-04-21T12:28:49.343Z,28.01
2023-04-21T12:29:49.342Z,28.00
2023-04-21T12:30:49.398Z,28.02
2023-04-21T12:31:49.455Z,28.05
2023-04-21T12:32:49.502Z,28.05
2023-04-21T12:33:49.588Z,27.99
2023-04-21T12:34:49.528Z,28.05
2023-04-21T12:35:49.591Z,28.02
2023-04-21T12:36:49.607Z,28.02
2023-04-21T12:37:49.629Z,27.98
2023-04-21T12:38:49.622Z,28.03
2023-04-21T12:39:49.639Z,28.02
2023-04-21T12:40:49.670Z,27.99
2023-04-21T12:41:49.688Z,28.02
2023-04-21T12:42:49.723Z,28.00
2023-04-21T12:43:49.764Z,28.00
2023-04-21T12:44:49.819Z,28.08
2023-04-21T12:45:49.939Z,28.03
2023-04-21T12:46:49.904Z,28.03
2023-04-21T12:47:49.965Z,28.04
2023-04-21T12:48:49.986Z,28.07
2023-04-21T12:49:49.988Z,28.00
2023-04-21T12:50:50.010Z,28.03
2023-04-21T12:51:50.026Z,28.01
2023-04-21T12:52:50.055Z,27.98
2023-04-21T12:53:50.054Z,28.04
2023-04-21T12:54:50.025Z,28.07